Time;durP1;ratioP1;P1;durP2;ratioP2;P2;SDS_P1;SDS_P2;PMS_P1;PMS_P2;Temp;Humidity;BMP_temperature;BMP_pressure;BME280_temperature;BME280_humidity;BME280_pressure;Samples;Min_cycle;Max_cycle;Signal;HPM_P1;HPM_P2
2023/11/06 00:00:42;;;;;;;6.00;3.40;;;;;;;13.64;92.01;98464.76;107869;1257;62128;-71
2023/11/06 00:03:24;;;;;;;5.50;3.30;;;;;;;13.67;91.52;98465.40;107847;1257;61333;-71
2023/11/06 00:06:00;;;;;;;5.50;3.60;;;;;;;13.69;91.35;98467.79;107828;1257;73826;-72
2023/11/06 00:09:03;;;;;;;5.30;2.90;;;;;;;13.71;91.38;98471.11;107685;1257;72349;-69
2023/11/06 00:11:51;;;;;;;5.20;3.40;;;;;;;13.69;91.65;98475.73;107804;1258;71375;-70
2023/11/06 00:14:19;;;;;;;5.70;2.90;;;;;;;13.71;91.41;98477.64;107763;1256;60406;-70
2023/11/06 00:16:46;;;;;;;5.20;2.90;;;;;;;13.70;91.66;98474.77;107867;1255;61144;-70
2023/11/06 00:19:14;;;;;;;6.80;3.30;;;;;;;13.72;91.53;98471.20;107935;1256;74615;-70
2023/11/06 00:21:43;;;;;;;3.80;2.70;;;;;;;13.69;91.75;98471.91;107859;1257;73119;-71
2023/11/06 00:24:10;;;;;;;7.50;3.00;;;;;;;13.68;91.61;98470.35;107905;1257;73237;-70
2023/11/06 00:26:38;;;;;;;4.80;3.00;;;;;;;13.63;91.58;98459.81;107833;1256;61058;-71
2023/11/06 00:29:07;;;;;;;4.50;3.00;;;;;;;13.64;91.66;98451.86;107778;1256;61264;-71
2023/11/06 00:31:41;;;;;;;6.20;2.90;;;;;;;13.64;91.66;98445.95;107822;1256;73469;-70
2023/11/06 00:34:09;;;;;;;5.10;3.00;;;;;;;13.63;91.57;98457.98;107884;1257;71116;-71
2023/11/06 00:36:36;;;;;;;5.50;3.00;;;;;;;13.60;91.50;98458.16;107868;1255;71089;-71
2023/11/06 00:39:05;;;;;;;5.90;3.00;;;;;;;13.57;91.58;98455.83;107812;1257;61688;-71
2023/11/06 00:41:33;;;;;;;4.50;3.00;;;;;;;13.55;91.88;98454.30;107778;1255;61069;-70
2023/11/06 00:44:01;;;;;;;4.10;2.80;;;;;;;13.54;92.00;98459.72;107856;1256;74743;-70
2023/11/06 00:46:29;;;;;;;4.70;3.00;;;;;;;13.54;92.20;98462.16;107896;1257;72659;-70
2023/11/06 00:48:56;;;;;;;4.70;2.70;;;;;;;13.53;92.22;98462.77;107843;1257;71398;-69
2023/11/06 00:51:24;;;;;;;6.30;3.00;;;;;;;13.54;92.37;98458.87;107916;1257;61135;-70
2023/11/06 00:53:52;;;;;;;4.30;2.70;;;;;;;13.54;92.40;98455.65;107837;1257;60343;-70
2023/11/06 00:56:19;;;;;;;5.40;2.70;;;;;;;13.53;92.44;98454.24;107823;1257;74651;-69
2023/11/06 00:58:47;;;;;;;5.90;3.40;;;;;;;13.53;92.48;98459.23;107932;1256;72748;-70
2023/11/06 01:01:15;;;;;;;4.80;2.70;;;;;;;13.54;92.58;98463.86;107723;1256;72738;-70
2023/11/06 01:03:42;;;;;;;5.20;3.30;;;;;;;13.52;92.61;98467.92;107654;1264;61782;-70
2023/11/06 01:06:10;;;;;;;6.50;2.70;;;;;;;13.54;92.62;98466.91;107856;1255;61362;-70
2023/11/06 01:08:38;;;;;;;5.00;2.60;;;;;;;13.55;92.57;98472.30;107847;1257;74687;-70
2023/11/06 01:11:05;;;;;;;5.00;2.80;;;;;;;13.55;92.50;98474.45;107875;1256;72498;-71
2023/11/06 01:13:34;;;;;;;4.40;2.80;;;;;;;13.20;94.08;98478.48;107892;1257;71691;-70
2023/11/06 01:16:02;;;;;;;5.20;2.50;;;;;;;12.99;96.50;98488.85;107881;1257;61231;-69
2023/11/06 01:18:30;;;;;;;4.50;2.40;;;;;;;13.09;97.24;98487.23;107776;1255;61227;-69
2023/11/06 01:20:57;;;;;;;4.20;2.60;;;;;;;13.43;94.81;98488.89;107772;1257;74524;-69
2023/11/06 01:23:25;;;;;;;5.00;2.60;;;;;;;13.48;93.51;98487.85;107862;1257;71467;-70
2023/11/06 01:25:52;;;;;;;5.00;2.70;;;;;;;13.48;92.60;98486.92;107900;1257;72517;-71
2023/11/06 01:28:20;;;;;;;5.90;2.90;;;;;;;13.46;92.00;98490.21;107971;1257;62501;-70
2023/11/06 01:30:48;;;;;;;4.10;2.70;;;;;;;13.30;92.04;98491.64;107817;1254;61301;-70
2023/11/06 01:33:16;;;;;;;5.50;3.10;;;;;;;12.96;94.41;98499.83;107907;1257;73499;-72
2023/11/06 01:35:43;;;;;;;5.90;2.90;;;;;;;13.27;93.29;98501.55;107813;1256;71513;-71
2023/11/06 01:38:11;;;;;;;4.20;3.10;;;;;;;13.24;92.29;98510.38;107887;1255;71370;-71
2023/11/06 01:40:38;;;;;;;4.30;2.30;;;;;;;12.75;94.59;98520.30;107855;1256;61677;-70
2023/11/06 01:43:06;;;;;;;4.30;2.40;;;;;;;13.01;94.74;98525.55;107897;1257;60008;-71
2023/11/06 01:45:36;;;;;;;3.80;2.50;;;;;;;13.16;92.84;98528.11;107778;1257;74675;-70
2023/11/06 01:48:04;;;;;;;4.50;2.70;;;;;;;13.18;92.25;98528.19;107869;1257;73025;-69
2023/11/06 01:50:35;;;;;;;4.90;2.70;;;;;;;13.20;91.97;98525.98;107791;1257;71735;-69
2023/11/06 01:53:06;;;;;;;4.30;2.70;;;;;;;13.08;92.23;98525.81;107790;1257;61163;-70
2023/11/06 01:55:34;;;;;;;5.70;2.80;;;;;;;12.68;95.03;98528.88;107789;1257;60609;-70
2023/11/06 01:58:02;;;;;;;5.50;2.90;;;;;;;12.58;97.16;98532.95;107791;1257;74695;-70
2023/11/06 02:00:30;;;;;;;6.10;2.90;;;;;;;12.53;98.23;98533.69;107837;1256;72530;-70
2023/11/06 02:02:57;;;;;;;6.70;3.00;;;;;;;12.52;98.98;98537.39;107835;1257;72505;-70
2023/11/06 02:05:25;;;;;;;6.00;2.60;;;;;;;12.50;99.67;98537.70;107641;1257;61143;-71
2023/11/06 02:07:53;;;;;;;6.30;2.60;;;;;;;12.47;99.75;98541.02;107933;1257;61260;-71
2023/11/06 02:10:21;;;;;;;6.50;2.90;;;;;;;12.44;99.99;98542.66;107903;1255;74637;-70
2023/11/06 02:12:49;;;;;;;5.20;2.70;;;;;;;12.41;100.00;98544.21;107973;1256;71471;-70
2023/11/06 02:15:16;;;;;;;4.20;2.30;;;;;;;12.35;100.00;98547.32;107810;1257;72687;-69
2023/11/06 02:17:44;;;;;;;5.10;2.50;;;;;;;12.29;100.00;98548.42;107891;1256;61699;-69
2023/11/06 02:20:12;;;;;;;4.70;2.30;;;;;;;12.21;99.99;98552.63;107898;1256;61118;-69
2023/11/06 02:22:44;;;;;;;4.40;2.40;;;;;;;12.11;99.98;98558.61;107944;1257;73399;-69
2023/11/06 02:25:12;;;;;;;6.20;2.70;;;;;;;12.03;100.00;98564.88;107818;1257;71192;-70
2023/11/06 02:27:42;;;;;;;4.50;2.30;;;;;;;11.93;100.00;98567.58;107925;1257;71396;-70
2023/11/06 02:30:11;;;;;;;4.80;2.60;;;;;;;11.85;100.00;98562.47;107944;1257;61061;-72
2023/11/06 02:32:38;;;;;;;6.70;2.70;;;;;;;11.78;100.00;98564.52;107793;1257;60124;-69
2023/11/06 02:35:07;;;;;;;5.90;3.10;;;;;;;11.70;100.00;98562.45;108013;1259;73410;-69
2023/11/06 02:37:35;;;;;;;5.80;2.50;;;;;;;11.64;100.00;98572.05;107858;1257;71266;-69
2023/11/06 02:40:06;;;;;;;4.40;2.70;;;;;;;11.57;100.00;98579.20;107868;1256;71971;-70
2023/11/06 02:42:36;;;;;;;5.50;2.30;;;;;;;11.50;100.00;98592.91;107859;1260;61160;-68
